Terminal Aerodrome Forecast
Issued by NWS Wakefield, VA

Home | Current Version | Previous Version | Text Only | Print | Product List | Glossary On
Versions: 1 2 3 4 5 6 7 8 9 10 11 12 13 14 15 16 17 18 19 20
000
FTUS41 KAKQ 290520
TAFRIC
TAF
KRIC 290520Z 2906/3006 19008KT P6SM SCT060 BKN250
      TEMPO 2908/2911 4SM BR
     FM291300 21012G18KT P6SM SCT050 BKN250
     FM292300 20008KT P6SM BKN250=

USA.gov is the U.S. government's official web portal to all federal, state and local government web resources and services.